createdAt,value
2018-12-24T00:03:03.475Z,150.60
2018-12-24T00:05:45.640Z,177.43
2018-12-24T00:07:54.900Z,178.63
2018-12-24T00:10:35.230Z,171.93
2018-12-24T00:13:30.498Z,186.90
2018-12-24T00:15:20.310Z,201.57
2018-12-24T00:17:27.003Z,201.47
2018-12-24T00:19:35.463Z,199.17
2018-12-24T00:21:43.169Z,198.27
2018-12-24T00:23:50.830Z,208.70
2018-12-24T00:25:59.457Z,203.57
2018-12-24T00:28:07.004Z,198.17
2018-12-24T00:30:14.741Z,199.03
2018-12-24T00:32:22.557Z,204.37
2018-12-24T00:34:30.244Z,203.20
2018-12-24T00:36:38.160Z,206.00
2018-12-24T00:38:46.091Z,209.03
2018-12-24T00:40:54.359Z,203.73
2018-12-24T00:43:01.928Z,200.67
2018-12-24T00:45:09.543Z,218.03
2018-12-24T00:47:17.378Z,190.23
2018-12-24T00:49:25.017Z,179.93
2018-12-24T00:51:33.263Z,181.60
2018-12-24T00:53:40.926Z,184.57
2018-12-24T00:55:48.628Z,170.63
2018-12-24T00:57:56.366Z,173.03
2018-12-24T01:00:04.004Z,161.90
2018-12-24T01:02:11.494Z,160.40
2018-12-24T01:04:19.002Z,166.50
2018-12-24T01:06:26.569Z,167.80
2018-12-24T01:08:34.932Z,176.97
2018-12-24T01:10:43.619Z,193.70
2018-12-24T01:12:51.134Z,191.77
2018-12-24T01:14:58.758Z,195.07
2018-12-24T01:17:06.572Z,198.70
2018-12-24T01:19:14.303Z,199.30
2018-12-24T01:21:21.889Z,207.57
2018-12-24T01:23:29.884Z,208.47
2018-12-24T01:25:37.041Z,201.13
2018-12-24T01:27:44.597Z,208.17
2018-12-24T01:29:52.402Z,212.77
2018-12-24T01:32:00.047Z,196.03
2018-12-24T01:34:08.543Z,213.27
2018-12-24T01:36:16.887Z,218.87
2018-12-24T01:38:24.637Z,215.33
2018-12-24T01:40:32.317Z,219.37
2018-12-24T01:42:39.954Z,204.77
2018-12-24T01:44:47.979Z,218.37
2018-12-24T01:46:56.022Z,204.30
2018-12-24T01:49:04.233Z,210.33
2018-12-24T01:51:11.980Z,218.47
2018-12-24T01:53:19.708Z,207.87
2018-12-24T01:55:27.255Z,192.93
2018-12-24T01:57:34.775Z,194.47
2018-12-24T02:00:49.593Z,198.80
2018-12-24T02:02:56.733Z,169.57
2018-12-24T02:05:04.051Z,172.27
2018-12-24T02:07:11.525Z,169.00
2018-12-24T02:09:19.444Z,173.33
2018-12-24T02:11:26.671Z,171.87
2018-12-24T02:13:33.705Z,178.63
2018-12-24T02:15:40.816Z,189.87
2018-12-24T02:17:47.929Z,194.10
2018-12-24T02:19:55.097Z,202.77
2018-12-24T02:22:02.877Z,190.17
2018-12-24T02:24:10.093Z,202.23
2018-12-24T02:26:18.289Z,198.23
2018-12-24T02:28:25.408Z,213.57
2018-12-24T02:30:32.662Z,218.67
2018-12-24T02:32:39.870Z,213.83
2018-12-24T02:34:47.354Z,223.97
2018-12-24T02:36:54.780Z,200.73
2018-12-24T02:39:02.484Z,219.87
2018-12-24T02:41:09.636Z,214.53
2018-12-24T02:43:16.991Z,212.77
2018-12-24T02:45:24.562Z,204.40
2018-12-24T02:47:31.694Z,228.03
2018-12-24T02:49:38.946Z,220.87
2018-12-24T02:51:46.303Z,216.20
2018-12-24T02:53:55.129Z,209.00
2018-12-24T02:56:02.237Z,198.40
2018-12-24T02:58:10.299Z,188.43
2018-12-24T03:00:17.952Z,182.83
2018-12-24T03:02:25.655Z,170.40
2018-12-24T03:05:17.563Z,160.67
2018-12-24T03:07:16.452Z,146.50
2018-12-24T03:09:46.767Z,152.17
2018-12-24T03:11:58.185Z,129.07
2018-12-24T03:14:20.963Z,184.60
2018-12-24T03:16:28.498Z,168.10
2018-12-24T03:19:29.559Z,170.47
2018-12-24T03:21:36.938Z,170.47
2018-12-24T03:23:57.015Z,155.90
2018-12-24T03:26:10.967Z,173.93
2018-12-24T03:28:35.545Z,163.30
2018-12-24T03:31:00.103Z,147.90
2018-12-24T03:33:07.948Z,146.17
2018-12-24T03:35:15.264Z,162.80
2018-12-24T03:37:34.331Z,150.30
2018-12-24T03:39:42.211Z,160.33
2018-12-24T03:41:49.438Z,157.53
2018-12-24T03:43:57.009Z,150.23
2018-12-24T03:46:13.473Z,152.90
2018-12-24T03:50:46.089Z,163.87
2018-12-24T03:52:54.281Z,173.17
2018-12-24T03:55:01.648Z,156.30
2018-12-24T03:57:08.905Z,162.10
2018-12-24T03:59:29.140Z,157.37
2018-12-24T04:01:37.286Z,154.70
2018-12-24T04:03:45.731Z,153.17
2018-12-24T04:06:04.649Z,145.60
2018-12-24T04:08:13.173Z,137.07
2018-12-24T04:10:53.830Z,136.30
2018-12-24T04:13:10.982Z,150.20
2018-12-24T04:15:18.991Z,145.70
2018-12-24T04:17:26.819Z,139.10
2018-12-24T04:19:34.190Z,138.27
2018-12-24T04:21:41.478Z,149.60
2018-12-24T04:23:48.848Z,140.43
2018-12-24T04:25:55.934Z,116.53
2018-12-24T04:28:03.203Z,133.27
2018-12-24T04:30:11.158Z,113.63
2018-12-24T04:32:18.443Z,129.10
2018-12-24T04:34:25.739Z,116.13
2018-12-24T04:36:33.176Z,138.07
2018-12-24T04:38:41.567Z,120.97
2018-12-24T04:40:49.193Z,138.37
2018-12-24T04:42:56.536Z,139.07
2018-12-24T04:45:04.285Z,129.27
2018-12-24T04:47:12.210Z,141.93
2018-12-24T04:49:21.018Z,132.43
2018-12-24T04:51:29.175Z,141.10
2018-12-24T04:53:36.904Z,143.47
2018-12-24T04:55:44.734Z,140.07
2018-12-24T04:57:52.610Z,146.90
2018-12-24T05:00:00.406Z,136.17
2018-12-24T05:02:08.223Z,140.70
2018-12-24T05:04:15.483Z,120.33
2018-12-24T05:06:23.700Z,110.67
2018-12-24T05:08:30.806Z,127.87
2018-12-24T05:10:38.811Z,106.87
2018-12-24T05:12:45.989Z,108.73
2018-12-24T05:14:53.463Z,102.27
2018-12-24T05:17:00.690Z,107.53
2018-12-24T05:19:08.023Z,132.97
2018-12-24T05:21:15.402Z,118.60
2018-12-24T05:23:22.634Z,117.27
2018-12-24T05:25:29.832Z,128.23
2018-12-24T05:27:37.611Z,126.50
2018-12-24T05:29:44.774Z,122.40
2018-12-24T05:31:52.960Z,121.70
2018-12-24T05:34:00.052Z,147.50
2018-12-24T05:36:07.369Z,133.43
2018-12-24T05:38:15.242Z,119.57
2018-12-24T05:40:22.494Z,130.20
2018-12-24T05:42:29.809Z,123.90
2018-12-24T05:44:38.614Z,132.07
2018-12-24T05:46:45.733Z,128.27
2018-12-24T05:48:53.057Z,123.00
2018-12-24T05:51:01.133Z,122.47
2018-12-24T05:53:08.320Z,127.67
2018-12-24T05:57:27.896Z,134.47
2018-12-24T05:59:35.415Z,125.20
2018-12-24T06:01:42.656Z,126.03
2018-12-24T06:06:04.014Z,151.37
2018-12-24T06:08:11.081Z,172.57
2018-12-24T06:10:18.727Z,135.37
2018-12-24T06:12:25.724Z,135.13
2018-12-24T06:14:32.417Z,144.40
2018-12-24T06:16:39.738Z,122.83
2018-12-24T06:18:47.087Z,129.20
2018-12-24T06:20:54.326Z,123.80
2018-12-24T06:23:01.619Z,108.27
2018-12-24T06:25:09.539Z,122.83
2018-12-24T06:27:16.830Z,128.13
2018-12-24T06:29:24.412Z,150.73
2018-12-24T06:31:32.453Z,148.10
2018-12-24T06:33:39.430Z,142.27
2018-12-24T06:35:46.703Z,146.27
2018-12-24T06:37:54.713Z,155.37
2018-12-24T06:40:02.307Z,175.03
2018-12-24T06:42:09.484Z,151.60
2018-12-24T06:44:16.466Z,159.47
2018-12-24T06:46:23.719Z,149.90
2018-12-24T06:48:30.919Z,163.77
2018-12-24T06:50:38.704Z,157.23
2018-12-24T06:52:45.840Z,164.50
2018-12-24T06:54:53.072Z,163.73
2018-12-24T06:57:01.437Z,166.73
2018-12-24T06:59:08.405Z,182.43
2018-12-24T07:01:16.247Z,163.97
2018-12-24T07:03:23.443Z,176.00
2018-12-24T07:05:30.743Z,170.13
2018-12-24T07:07:38.129Z,170.73
2018-12-24T07:09:46.031Z,153.17
2018-12-24T07:11:53.285Z,170.90
2018-12-24T07:14:00.619Z,192.80
2018-12-24T07:16:07.911Z,170.80
2018-12-24T07:18:15.301Z,154.90
2018-12-24T07:20:23.062Z,145.20
2018-12-24T07:22:30.173Z,144.57
2018-12-24T07:24:37.304Z,129.83
2018-12-24T07:26:45.040Z,122.67
2018-12-24T07:28:58.982Z,112.63
2018-12-24T07:31:02.124Z,126.27
2018-12-24T07:33:09.598Z,150.07
2018-12-24T07:35:16.814Z,154.73
2018-12-24T07:37:23.944Z,168.60
2018-12-24T07:39:31.760Z,155.07
2018-12-24T07:41:39.187Z,175.23
2018-12-24T07:43:46.212Z,164.90
2018-12-24T07:45:53.392Z,177.77
2018-12-24T07:48:00.611Z,183.57
2018-12-24T07:50:07.730Z,185.20
2018-12-24T07:52:14.904Z,193.83
2018-12-24T07:54:22.254Z,193.20
2018-12-24T07:56:30.734Z,201.00
2018-12-24T07:58:39.483Z,205.97
2018-12-24T08:00:46.800Z,196.57
2018-12-24T08:02:53.957Z,205.97
2018-12-24T08:05:01.210Z,200.90
2018-12-24T08:07:08.927Z,187.00
2018-12-24T08:09:16.318Z,196.23
2018-12-24T08:11:24.022Z,202.13
2018-12-24T08:13:31.168Z,206.60
2018-12-24T08:15:38.867Z,213.47
2018-12-24T08:17:45.966Z,191.90
2018-12-24T08:19:54.246Z,178.17
2018-12-24T08:22:01.418Z,194.60
2018-12-24T08:24:08.682Z,179.47
2018-12-24T08:26:15.959Z,167.93
2018-12-24T08:28:22.984Z,161.27
2018-12-24T08:30:30.162Z,143.93
2018-12-24T08:32:37.372Z,141.47
2018-12-24T08:34:45.432Z,141.57
2018-12-24T08:36:52.654Z,139.17
2018-12-24T08:39:00.243Z,122.43
2018-12-24T08:41:07.577Z,127.27
2018-12-24T08:43:14.912Z,122.20
2018-12-24T08:45:22.279Z,123.20
2018-12-24T08:47:29.467Z,139.07
2018-12-24T08:49:36.609Z,148.47
2018-12-24T08:51:43.727Z,165.30
2018-12-24T08:53:50.929Z,169.43
2018-12-24T08:55:58.296Z,170.70
2018-12-24T08:58:05.344Z,171.93
2018-12-24T09:00:14.051Z,168.70
2018-12-24T09:02:21.354Z,189.10
2018-12-24T09:04:28.678Z,171.57
2018-12-24T09:06:36.193Z,192.03
2018-12-24T09:08:43.241Z,180.70
2018-12-24T09:10:50.541Z,192.17
2018-12-24T09:12:57.856Z,187.07
2018-12-24T09:15:05.775Z,185.13
2018-12-24T09:17:13.507Z,196.53
2018-12-24T09:19:20.685Z,191.37
2018-12-24T09:21:28.156Z,207.80
2018-12-24T09:23:35.498Z,214.40
2018-12-24T09:25:42.887Z,207.87
2018-12-24T09:27:49.735Z,217.27
2018-12-24T09:29:56.962Z,204.13
2018-12-24T09:32:04.228Z,206.07
2018-12-24T09:34:11.600Z,209.13
2018-12-24T09:36:18.937Z,184.50
2018-12-24T09:38:25.953Z,171.23
2018-12-24T09:40:33.050Z,157.10
2018-12-24T09:42:40.167Z,144.10
2018-12-24T09:44:47.529Z,139.80
2018-12-24T09:46:54.471Z,134.40
2018-12-24T09:49:02.278Z,131.20
2018-12-24T09:51:10.264Z,131.50
2018-12-24T09:53:17.451Z,128.97
2018-12-24T09:55:24.712Z,155.10
2018-12-24T09:57:32.479Z,179.20
2018-12-24T09:59:40.267Z,174.27
2018-12-24T10:01:47.306Z,186.87
2018-12-24T10:04:02.807Z,177.97
2018-12-24T10:06:13.442Z,183.73
2018-12-24T10:08:22.808Z,185.60
2018-12-24T10:10:29.992Z,185.67
2018-12-24T10:12:37.146Z,200.33
2018-12-24T10:14:45.166Z,180.50
2018-12-24T10:16:52.254Z,185.80
2018-12-24T10:19:00.314Z,188.57
2018-12-24T10:21:08.116Z,188.43
2018-12-24T10:23:15.181Z,193.20
2018-12-24T10:25:22.966Z,179.63
2018-12-24T10:27:30.199Z,172.63
2018-12-24T10:29:37.384Z,173.40
2018-12-24T10:31:45.269Z,147.90
2018-12-24T10:33:53.244Z,141.33
2018-12-24T10:36:00.261Z,131.93
2018-12-24T10:38:08.117Z,136.13
2018-12-24T10:40:19.527Z,190.10
2018-12-24T10:42:27.197Z,195.83
2018-12-24T10:44:34.294Z,191.43
2018-12-24T10:46:41.408Z,197.07
2018-12-24T10:48:49.238Z,208.23
2018-12-24T10:50:56.954Z,201.63
2018-12-24T10:53:04.603Z,200.77
2018-12-24T10:55:12.311Z,202.03
2018-12-24T10:57:19.337Z,199.73
2018-12-24T10:59:26.579Z,186.87
2018-12-24T11:01:33.937Z,215.30
2018-12-24T11:03:41.855Z,198.57
2018-12-24T11:05:49.122Z,197.80
2018-12-24T11:07:56.419Z,175.23
2018-12-24T11:10:03.496Z,168.30
2018-12-24T11:12:11.726Z,151.57
2018-12-24T11:14:19.063Z,145.70
2018-12-24T11:16:26.367Z,145.93
2018-12-24T11:18:34.412Z,141.67
2018-12-24T11:20:41.912Z,131.57
2018-12-24T11:22:48.818Z,136.53
2018-12-24T11:24:56.143Z,180.37
2018-12-24T11:27:03.385Z,170.27
2018-12-24T11:29:10.457Z,188.47
2018-12-24T11:31:18.204Z,181.23
2018-12-24T11:33:25.227Z,188.13
2018-12-24T11:35:32.441Z,189.63
2018-12-24T11:37:39.643Z,181.90
2018-12-24T11:39:47.125Z,209.10
2018-12-24T11:41:54.185Z,213.20
2018-12-24T11:44:01.326Z,202.17
2018-12-24T11:46:09.139Z,204.47
2018-12-24T11:48:16.365Z,210.90
2018-12-24T11:50:23.355Z,213.10
2018-12-24T11:52:30.644Z,201.63
2018-12-24T11:54:38.606Z,201.20
2018-12-24T11:56:45.926Z,211.63
2018-12-24T11:58:54.098Z,199.13
2018-12-24T12:01:01.226Z,176.17
2018-12-24T12:03:09.309Z,176.47
2018-12-24T12:05:16.293Z,164.33
2018-12-24T12:07:23.406Z,157.27
2018-12-24T12:09:30.834Z,154.53
2018-12-24T12:11:38.369Z,143.97
2018-12-24T12:13:45.381Z,139.47
2018-12-24T12:15:52.763Z,136.10
2018-12-24T12:17:59.964Z,137.87
2018-12-24T12:20:07.274Z,125.37
2018-12-24T12:22:14.655Z,126.57
2018-12-24T12:24:21.768Z,127.33
2018-12-24T12:26:30.342Z,121.97
2018-12-24T12:28:37.667Z,115.87
2018-12-24T12:30:44.784Z,119.77
2018-12-24T12:32:51.825Z,123.53
2018-12-24T12:34:59.163Z,118.27
2018-12-24T12:37:06.855Z,119.67
2018-12-24T12:39:13.934Z,117.83
2018-12-24T12:41:21.475Z,120.43
2018-12-24T12:43:28.520Z,121.00
2018-12-24T12:45:35.811Z,118.73
2018-12-24T12:47:43.197Z,120.10
2018-12-24T12:49:50.227Z,119.53
2018-12-24T12:51:57.414Z,111.70
2018-12-24T12:54:05.171Z,109.90
2018-12-24T12:56:12.288Z,101.93
2018-12-24T12:58:19.296Z,102.93
2018-12-24T13:00:27.046Z,107.47
2018-12-24T13:02:34.333Z,105.93
2018-12-24T13:04:41.645Z,121.67
2018-12-24T13:06:48.681Z,106.20
2018-12-24T13:08:55.989Z,114.30
2018-12-24T13:11:03.333Z,113.10
2018-12-24T13:13:11.010Z,123.57
2018-12-24T13:15:18.365Z,116.50
2018-12-24T13:17:25.443Z,108.10
2018-12-24T13:19:33.247Z,110.63
2018-12-24T13:21:41.968Z,103.53
2018-12-24T13:23:49.502Z,101.10
2018-12-24T13:26:16.187Z,103.03
2018-12-24T13:28:24.080Z,182.07
2018-12-24T13:30:31.414Z,152.20
2018-12-24T13:32:39.103Z,175.50
2018-12-24T13:34:46.127Z,177.60
2018-12-24T13:36:53.287Z,190.53
2018-12-24T13:39:00.505Z,202.80
2018-12-24T13:41:08.503Z,191.97
2018-12-24T13:43:15.824Z,152.63
2018-12-24T13:45:23.173Z,146.03
2018-12-24T13:47:30.614Z,143.27
2018-12-24T13:49:37.644Z,127.20
2018-12-24T13:51:45.004Z,115.57
2018-12-24T13:53:52.251Z,127.27
2018-12-24T13:55:59.865Z,124.57
2018-12-24T13:58:07.162Z,111.50
2018-12-24T14:00:15.315Z,109.07
2018-12-24T14:02:22.611Z,123.97
2018-12-24T14:04:30.724Z,107.23
2018-12-24T14:06:38.766Z,160.57
2018-12-24T14:08:46.018Z,180.23
2018-12-24T14:10:53.453Z,180.53
2018-12-24T14:13:01.387Z,192.20
2018-12-24T14:15:09.122Z,186.80
2018-12-24T14:17:17.123Z,193.13
2018-12-24T14:19:24.371Z,212.70
2018-12-24T14:21:31.439Z,213.60
2018-12-24T14:23:39.271Z,159.30
2018-12-24T14:25:46.455Z,147.47
2018-12-24T14:27:53.668Z,139.03
2018-12-24T14:30:01.559Z,124.77
2018-12-24T14:32:09.129Z,119.60
2018-12-24T14:34:21.433Z,120.70
2018-12-24T14:36:28.835Z,119.87
2018-12-24T14:38:36.514Z,114.07
2018-12-24T14:40:44.135Z,106.63
2018-12-24T14:42:51.258Z,113.03
2018-12-24T14:44:58.840Z,160.50
2018-12-24T14:47:06.677Z,165.50
2018-12-24T14:49:14.069Z,165.80
2018-12-24T14:51:21.303Z,173.37
2018-12-24T14:53:28.661Z,178.90
2018-12-24T14:55:35.797Z,175.20
2018-12-24T14:57:43.060Z,171.63
2018-12-24T14:59:50.472Z,184.23
2018-12-24T15:01:57.787Z,198.03
2018-12-24T15:04:04.978Z,204.00
2018-12-24T15:06:12.393Z,201.63
2018-12-24T15:08:19.797Z,171.63
2018-12-24T15:10:27.098Z,187.30
2018-12-24T15:12:35.014Z,189.07
2018-12-24T15:14:43.857Z,159.23
2018-12-24T15:16:52.830Z,153.40
2018-12-24T15:19:01.533Z,145.97
2018-12-24T15:21:08.695Z,140.63
2018-12-24T15:23:15.925Z,131.17
2018-12-24T15:25:23.431Z,132.83
2018-12-24T15:27:30.956Z,122.27
2018-12-24T15:29:38.241Z,132.87
2018-12-24T15:31:45.576Z,152.60
2018-12-24T15:33:52.657Z,165.07
2018-12-24T15:36:01.175Z,148.77
2018-12-24T15:38:15.586Z,155.03
2018-12-24T15:40:22.848Z,144.00
2018-12-24T15:42:32.108Z,155.10
2018-12-24T15:44:39.760Z,151.97
2018-12-24T15:46:47.245Z,139.40
2018-12-24T15:49:30.783Z,178.07
2018-12-24T15:52:07.470Z,160.90
2018-12-24T15:54:15.107Z,169.70
2018-12-24T15:56:22.158Z,155.13
2018-12-24T15:58:29.520Z,170.13
2018-12-24T16:00:37.159Z,150.93
2018-12-24T16:02:45.990Z,181.33
2018-12-24T16:04:53.497Z,169.93
2018-12-24T16:07:02.063Z,178.70
2018-12-24T16:09:10.753Z,167.27
2018-12-24T16:11:18.159Z,180.40
2018-12-24T16:13:25.531Z,189.97
2018-12-24T16:15:51.980Z,164.97
2018-12-24T16:18:00.205Z,179.87
2018-12-24T16:20:08.119Z,155.10
2018-12-24T16:22:15.924Z,146.87
2018-12-24T16:25:27.721Z,158.83
2018-12-24T16:27:15.592Z,141.90
2018-12-24T16:29:23.737Z,147.17
2018-12-24T16:31:31.880Z,130.47
2018-12-24T16:33:38.969Z,157.03
2018-12-24T16:35:46.929Z,117.70
2018-12-24T16:37:54.143Z,116.47
2018-12-24T16:40:05.239Z,116.53
2018-12-24T16:42:12.570Z,146.30
2018-12-24T16:44:20.320Z,138.03
2018-12-24T16:46:27.483Z,138.60
2018-12-24T16:48:34.787Z,151.83
2018-12-24T16:50:54.056Z,141.90
2018-12-24T16:53:01.122Z,158.27
2018-12-24T16:55:09.141Z,168.30
2018-12-24T16:57:16.499Z,174.13
2018-12-24T16:59:24.263Z,175.60
2018-12-24T17:01:31.683Z,178.57
2018-12-24T17:03:39.333Z,182.53
2018-12-24T17:05:48.566Z,174.40
2018-12-24T17:08:10.987Z,158.53
2018-12-24T17:10:31.518Z,153.90
2018-12-24T17:12:55.569Z,159.63
2018-12-24T17:15:23.079Z,155.00
2018-12-24T17:17:30.849Z,141.93
2018-12-24T17:19:38.453Z,143.20
2018-12-24T17:21:46.070Z,136.07
2018-12-24T17:23:53.502Z,121.17
2018-12-24T17:26:01.026Z,164.43
2018-12-24T17:28:09.252Z,166.10
2018-12-24T17:30:17.188Z,157.90
2018-12-24T17:32:24.715Z,160.63
2018-12-24T17:34:32.106Z,162.50
2018-12-24T17:36:39.374Z,161.20
2018-12-24T17:38:46.701Z,168.37
2018-12-24T17:40:53.910Z,160.20
2018-12-24T17:43:01.299Z,156.43
2018-12-24T17:45:08.906Z,173.30
2018-12-24T17:47:16.628Z,181.17
2018-12-24T17:49:24.168Z,177.63
2018-12-24T17:51:31.432Z,189.37
2018-12-24T17:53:39.544Z,184.27
2018-12-24T17:55:46.872Z,189.20
2018-12-24T17:57:54.322Z,181.10
2018-12-24T18:00:01.753Z,199.00
2018-12-24T18:02:09.164Z,195.07
2018-12-24T18:04:16.586Z,190.03
2018-12-24T18:06:23.535Z,192.77
2018-12-24T18:08:31.148Z,196.87
2018-12-24T18:10:38.373Z,196.73
2018-12-24T18:12:46.553Z,201.97
2018-12-24T18:14:54.049Z,210.67
2018-12-24T18:17:01.382Z,234.03
2018-12-24T18:19:08.735Z,206.97
2018-12-24T18:21:15.747Z,221.93
2018-12-24T18:23:22.937Z,210.63
2018-12-24T18:25:32.596Z,183.30
2018-12-24T18:27:40.049Z,196.77
2018-12-24T18:29:49.354Z,200.77
2018-12-24T18:32:04.890Z,191.00
2018-12-24T18:34:17.711Z,181.13
2018-12-24T18:36:33.724Z,201.83
2018-12-24T18:38:41.201Z,182.33
2018-12-24T18:40:48.491Z,199.57
2018-12-24T18:42:55.501Z,193.97
2018-12-24T18:45:02.836Z,182.90
2018-12-24T18:47:10.450Z,197.23
2018-12-24T18:49:17.976Z,202.53
2018-12-24T18:51:25.629Z,214.40
2018-12-24T18:53:33.635Z,212.93
2018-12-24T18:55:41.117Z,194.40
2018-12-24T18:57:48.094Z,206.07
2018-12-24T18:59:55.301Z,196.33
2018-12-24T19:02:03.476Z,190.13
2018-12-24T19:04:10.597Z,202.43
2018-12-24T19:06:17.753Z,227.13
2018-12-24T19:08:25.404Z,204.73
2018-12-24T19:10:33.179Z,235.13
2018-12-24T19:12:41.238Z,238.97
2018-12-24T19:14:48.517Z,209.63
2018-12-24T19:16:55.680Z,206.53
2018-12-24T19:19:04.116Z,240.57
2018-12-24T19:21:11.332Z,259.70
2018-12-24T19:23:19.073Z,262.83
2018-12-24T19:25:26.319Z,256.83
2018-12-24T19:27:33.400Z,249.30
2018-12-24T19:29:40.818Z,248.57
2018-12-24T19:31:47.972Z,267.03
2018-12-24T19:33:55.175Z,222.97
2018-12-24T19:36:02.487Z,238.20
2018-12-24T19:38:09.744Z,230.40
2018-12-24T19:40:17.396Z,237.67
2018-12-24T19:42:24.738Z,226.03
2018-12-24T19:44:32.817Z,225.90
2018-12-24T19:46:40.098Z,204.87
2018-12-24T19:48:48.436Z,197.30
2018-12-24T19:50:55.670Z,193.70
2018-12-24T19:53:03.077Z,170.10
2018-12-24T19:55:10.637Z,158.33
2018-12-24T19:57:17.949Z,151.13
2018-12-24T19:59:25.799Z,176.50
2018-12-24T20:01:33.578Z,146.37
2018-12-24T20:03:41.262Z,153.33
2018-12-24T20:05:49.683Z,177.20
2018-12-24T20:07:57.386Z,182.03
2018-12-24T20:10:05.446Z,171.40
2018-12-24T20:12:12.528Z,184.87
2018-12-24T20:14:21.146Z,193.17
2018-12-24T20:16:28.450Z,190.00
2018-12-24T20:18:35.686Z,223.37
2018-12-24T20:20:43.038Z,205.53
2018-12-24T20:22:50.157Z,209.33
2018-12-24T20:24:57.166Z,205.07
2018-12-24T20:27:05.014Z,221.37
2018-12-24T20:29:13.696Z,205.83
2018-12-24T20:31:22.422Z,208.57
2018-12-24T20:33:30.445Z,209.77
2018-12-24T20:35:39.098Z,206.50
2018-12-24T20:37:46.717Z,194.30
2018-12-24T20:39:54.306Z,202.03
2018-12-24T20:42:02.773Z,211.03
2018-12-24T20:44:10.591Z,218.10
2018-12-24T20:46:18.599Z,226.53
2018-12-24T20:48:25.936Z,223.50
2018-12-24T20:50:33.171Z,230.13
2018-12-24T20:52:40.363Z,228.20
2018-12-24T20:54:47.725Z,221.83
2018-12-24T20:56:56.393Z,236.37
2018-12-24T20:59:03.562Z,228.53
2018-12-24T21:01:11.610Z,209.80
2018-12-24T21:03:18.833Z,211.00
2018-12-24T21:05:26.555Z,191.50
2018-12-24T21:07:33.902Z,171.47
2018-12-24T21:09:41.140Z,192.03
2018-12-24T21:11:49.191Z,188.07
2018-12-24T21:13:56.550Z,165.23
2018-12-24T21:16:03.909Z,156.80
2018-12-24T21:18:15.037Z,137.27
2018-12-24T21:20:19.738Z,145.80
2018-12-24T21:22:26.429Z,162.93
2018-12-24T21:24:34.302Z,188.03
2018-12-24T21:26:41.035Z,187.97
2018-12-24T21:28:47.880Z,196.00
2018-12-24T21:30:55.476Z,195.30
2018-12-24T21:33:02.736Z,188.03
2018-12-24T21:35:10.232Z,195.73
2018-12-24T21:37:18.377Z,204.37
2018-12-24T21:39:26.467Z,201.17
2018-12-24T21:41:33.664Z,214.43
2018-12-24T21:43:40.959Z,203.33
2018-12-24T21:45:48.329Z,173.57
2018-12-24T21:47:55.550Z,169.87
2018-12-24T21:50:03.100Z,164.23
2018-12-24T21:52:10.416Z,171.17
2018-12-24T21:54:17.648Z,155.97
2018-12-24T21:56:26.054Z,150.33
2018-12-24T21:58:33.258Z,146.37
2018-12-24T22:00:41.734Z,151.93
2018-12-24T22:02:49.186Z,163.73
2018-12-24T22:04:56.434Z,179.43
2018-12-24T22:07:03.693Z,162.10
2018-12-24T22:09:11.307Z,162.77
2018-12-24T22:11:18.329Z,164.07
2018-12-24T22:13:26.359Z,167.07
2018-12-24T22:15:33.580Z,177.47
2018-12-24T22:17:41.060Z,177.57
2018-12-24T22:19:48.375Z,196.10
2018-12-24T22:21:55.447Z,188.10
2018-12-24T22:24:03.682Z,196.50
2018-12-24T22:26:11.617Z,198.20
2018-12-24T22:28:18.920Z,196.97
2018-12-24T22:30:26.281Z,161.70
2018-12-24T22:32:34.794Z,171.43
2018-12-24T22:34:42.027Z,147.87
2018-12-24T22:36:49.081Z,141.27
2018-12-24T22:38:56.349Z,134.00
2018-12-24T22:41:03.647Z,135.53
2018-12-24T22:43:10.953Z,146.07
2018-12-24T22:45:18.362Z,135.43
2018-12-24T22:47:25.502Z,131.77
2018-12-24T22:49:32.966Z,128.57
2018-12-24T22:51:40.439Z,136.30
2018-12-24T22:53:47.876Z,187.03
2018-12-24T22:55:55.608Z,165.40
2018-12-24T22:58:02.857Z,157.67
2018-12-24T23:00:14.112Z,200.93
2018-12-24T23:02:22.600Z,174.77
2018-12-24T23:04:30.912Z,161.37
2018-12-24T23:06:38.351Z,147.57
2018-12-24T23:08:45.683Z,156.47
2018-12-24T23:13:08.026Z,173.83
2018-12-24T23:15:15.229Z,154.50
2018-12-24T23:17:22.525Z,154.03
2018-12-24T23:19:30.038Z,134.00
2018-12-24T23:21:37.357Z,136.47
2018-12-24T23:23:44.389Z,145.93
2018-12-24T23:25:51.870Z,153.43
2018-12-24T23:27:59.147Z,151.50
2018-12-24T23:30:07.224Z,134.50
2018-12-24T23:32:14.360Z,145.13
2018-12-24T23:34:21.837Z,151.03
2018-12-24T23:36:29.260Z,131.57
2018-12-24T23:38:36.403Z,127.23
2018-12-24T23:40:44.245Z,142.07
2018-12-24T23:42:51.617Z,140.60
2018-12-24T23:44:59.519Z,142.73
2018-12-24T23:47:06.946Z,155.47
2018-12-24T23:49:14.222Z,146.13
2018-12-24T23:51:21.437Z,152.50
2018-12-24T23:53:28.728Z,178.53
2018-12-24T23:55:36.530Z,183.60
2018-12-24T23:57:43.904Z,180.30
2018-12-24T23:59:51.623Z,148.67
